sensor_id;sensor_type;location;lat;lon;timestamp;P1;durP1;ratioP1;P2;durP2;ratioP2
25231;SDS011;13176;51.140;6.290;2022-11-15T00:00:50;43.55;;;40.60;;
25231;SDS011;13176;51.140;6.290;2022-11-15T00:03:18;39.90;;;37.30;;
25231;SDS011;13176;51.140;6.290;2022-11-15T00:05:47;41.60;;;38.75;;
25231;SDS011;13176;51.140;6.290;2022-11-15T00:08:13;42.25;;;39.50;;
25231;SDS011;13176;51.140;6.290;2022-11-15T00:10:40;39.65;;;37.05;;
25231;SDS011;13176;51.140;6.290;2022-11-15T00:13:07;42.42;;;39.53;;
25231;SDS011;13176;51.140;6.290;2022-11-15T00:15:38;43.78;;;40.80;;
25231;SDS011;13176;51.140;6.290;2022-11-15T00:18:06;44.22;;;41.38;;
25231;SDS011;13176;51.140;6.290;2022-11-15T00:20:38;42.83;;;39.90;;
25231;SDS011;13176;51.140;6.290;2022-11-15T00:23:05;42.03;;;39.20;;
25231;SDS011;13176;51.140;6.290;2022-11-15T00:25:32;43.78;;;41.08;;
25231;SDS011;13176;51.140;6.290;2022-11-15T00:27:59;41.38;;;38.78;;
25231;SDS011;13176;51.140;6.290;2022-11-15T00:30:26;41.70;;;39.00;;
25231;SDS011;13176;51.140;6.290;2022-11-15T00:32:53;41.65;;;38.80;;
25231;SDS011;13176;51.140;6.290;2022-11-15T00:35:20;42.03;;;39.42;;
25231;SDS011;13176;51.140;6.290;2022-11-15T00:37:47;41.50;;;38.67;;
25231;SDS011;13176;51.140;6.290;2022-11-15T00:40:14;43.95;;;41.03;;
25231;SDS011;13176;51.140;6.290;2022-11-15T00:42:41;41.92;;;38.95;;
25231;SDS011;13176;51.140;6.290;2022-11-15T00:45:08;41.45;;;38.80;;
25231;SDS011;13176;51.140;6.290;2022-11-15T00:47:35;41.78;;;39.08;;
25231;SDS011;13176;51.140;6.290;2022-11-15T00:50:01;41.83;;;39.13;;
25231;SDS011;13176;51.140;6.290;2022-11-15T00:52:28;45.80;;;42.70;;
25231;SDS011;13176;51.140;6.290;2022-11-15T00:54:54;51.33;;;48.00;;
25231;SDS011;13176;51.140;6.290;2022-11-15T00:57:21;54.50;;;51.22;;
25231;SDS011;13176;51.140;6.290;2022-11-15T00:59:47;57.72;;;53.85;;
25231;SDS011;13176;51.140;6.290;2022-11-15T01:02:13;59.35;;;55.42;;
25231;SDS011;13176;51.140;6.290;2022-11-15T01:04:40;60.00;;;56.13;;
25231;SDS011;13176;51.140;6.290;2022-11-15T01:07:06;57.90;;;54.25;;
25231;SDS011;13176;51.140;6.290;2022-11-15T01:09:32;53.05;;;49.75;;
25231;SDS011;13176;51.140;6.290;2022-11-15T01:11:59;50.25;;;47.15;;
25231;SDS011;13176;51.140;6.290;2022-11-15T01:14:25;48.90;;;45.55;;
25231;SDS011;13176;51.140;6.290;2022-11-15T01:16:52;51.50;;;48.30;;
25231;SDS011;13176;51.140;6.290;2022-11-15T01:19:18;63.22;;;59.28;;
25231;SDS011;13176;51.140;6.290;2022-11-15T01:21:45;61.65;;;57.92;;
25231;SDS011;13176;51.140;6.290;2022-11-15T01:24:15;61.97;;;58.05;;
25231;SDS011;13176;51.140;6.290;2022-11-15T01:26:42;58.55;;;55.10;;
25231;SDS011;13176;51.140;6.290;2022-11-15T01:29:08;66.97;;;62.85;;
25231;SDS011;13176;51.140;6.290;2022-11-15T01:31:34;61.45;;;57.63;;
25231;SDS011;13176;51.140;6.290;2022-11-15T01:34:01;65.28;;;61.40;;
25231;SDS011;13176;51.140;6.290;2022-11-15T01:36:27;65.88;;;61.80;;
25231;SDS011;13176;51.140;6.290;2022-11-15T01:38:55;63.72;;;59.92;;
25231;SDS011;13176;51.140;6.290;2022-11-15T01:41:25;63.22;;;59.33;;
25231;SDS011;13176;51.140;6.290;2022-11-15T01:44:44;61.67;;;57.92;;
25231;SDS011;13176;51.140;6.290;2022-11-15T01:49:33;67.00;;;62.90;;
25231;SDS011;13176;51.140;6.290;2022-11-15T01:52:05;66.22;;;62.17;;
25231;SDS011;13176;51.140;6.290;2022-11-15T01:54:35;65.43;;;61.47;;
25231;SDS011;13176;51.140;6.290;2022-11-15T01:57:03;65.88;;;61.72;;
25231;SDS011;13176;51.140;6.290;2022-11-15T01:59:33;65.63;;;61.67;;
25231;SDS011;13176;51.140;6.290;2022-11-15T02:01:59;64.32;;;60.20;;
25231;SDS011;13176;51.140;6.290;2022-11-15T02:04:27;59.50;;;55.90;;
25231;SDS011;13176;51.140;6.290;2022-11-15T02:06:57;67.60;;;63.35;;
25231;SDS011;13176;51.140;6.290;2022-11-15T02:09:24;62.30;;;58.28;;
25231;SDS011;13176;51.140;6.290;2022-11-15T02:11:51;60.70;;;56.83;;
25231;SDS011;13176;51.140;6.290;2022-11-15T02:14:20;61.03;;;57.15;;
25231;SDS011;13176;51.140;6.290;2022-11-15T02:16:59;64.97;;;60.90;;
25231;SDS011;13176;51.140;6.290;2022-11-15T02:25:39;64.95;;;60.97;;
25231;SDS011;13176;51.140;6.290;2022-11-15T02:31:10;58.92;;;55.30;;
25231;SDS011;13176;51.140;6.290;2022-11-15T02:33:42;59.17;;;55.70;;
25231;SDS011;13176;51.140;6.290;2022-11-15T02:39:43;63.63;;;59.63;;
25231;SDS011;13176;51.140;6.290;2022-11-15T02:42:05;61.45;;;57.63;;
25231;SDS011;13176;51.140;6.290;2022-11-15T02:44:56;57.55;;;54.08;;
25231;SDS011;13176;51.140;6.290;2022-11-15T02:47:24;54.00;;;50.75;;
25231;SDS011;13176;51.140;6.290;2022-11-15T02:50:00;57.92;;;54.47;;
25231;SDS011;13176;51.140;6.290;2022-11-15T02:52:31;56.42;;;53.08;;
25231;SDS011;13176;51.140;6.290;2022-11-15T02:54:58;61.45;;;57.85;;
25231;SDS011;13176;51.140;6.290;2022-11-15T02:57:35;61.15;;;57.30;;
25231;SDS011;13176;51.140;6.290;2022-11-15T03:00:15;55.78;;;52.60;;
25231;SDS011;13176;51.140;6.290;2022-11-15T03:08:31;58.58;;;55.08;;
25231;SDS011;13176;51.140;6.290;2022-11-15T03:11:08;56.97;;;53.63;;
25231;SDS011;13176;51.140;6.290;2022-11-15T03:16:29;59.15;;;55.47;;
25231;SDS011;13176;51.140;6.290;2022-11-15T03:19:13;55.13;;;51.83;;
25231;SDS011;13176;51.140;6.290;2022-11-15T03:21:46;58.75;;;55.25;;
25231;SDS011;13176;51.140;6.290;2022-11-15T03:24:15;59.60;;;55.85;;
25231;SDS011;13176;51.140;6.290;2022-11-15T03:26:51;59.67;;;56.08;;
25231;SDS011;13176;51.140;6.290;2022-11-15T03:29:22;60.22;;;56.47;;
25231;SDS011;13176;51.140;6.290;2022-11-15T03:31:55;58.90;;;55.42;;
25231;SDS011;13176;51.140;6.290;2022-11-15T03:34:40;61.53;;;58.00;;
25231;SDS011;13176;51.140;6.290;2022-11-15T03:37:14;59.17;;;55.65;;
25231;SDS011;13176;51.140;6.290;2022-11-15T03:39:42;69.63;;;65.47;;
25231;SDS011;13176;51.140;6.290;2022-11-15T03:42:21;66.60;;;62.40;;
25231;SDS011;13176;51.140;6.290;2022-11-15T03:44:54;69.43;;;65.15;;
25231;SDS011;13176;51.140;6.290;2022-11-15T03:50:14;70.20;;;65.88;;
25231;SDS011;13176;51.140;6.290;2022-11-15T03:52:45;64.23;;;60.07;;
25231;SDS011;13176;51.140;6.290;2022-11-15T03:55:14;64.22;;;60.13;;
25231;SDS011;13176;51.140;6.290;2022-11-15T03:57:44;55.70;;;52.25;;
25231;SDS011;13176;51.140;6.290;2022-11-15T04:00:10;55.05;;;51.72;;
25231;SDS011;13176;51.140;6.290;2022-11-15T04:02:37;57.15;;;53.78;;
25231;SDS011;13176;51.140;6.290;2022-11-15T04:05:03;60.80;;;57.17;;
25231;SDS011;13176;51.140;6.290;2022-11-15T04:07:30;61.53;;;57.58;;
25231;SDS011;13176;51.140;6.290;2022-11-15T04:09:57;63.05;;;59.03;;
25231;SDS011;13176;51.140;6.290;2022-11-15T04:12:30;61.67;;;57.78;;
25231;SDS011;13176;51.140;6.290;2022-11-15T04:15:02;53.63;;;50.47;;
25231;SDS011;13176;51.140;6.290;2022-11-15T04:22:59;55.83;;;52.40;;
25231;SDS011;13176;51.140;6.290;2022-11-15T04:25:46;59.10;;;55.47;;
25231;SDS011;13176;51.140;6.290;2022-11-15T04:28:17;54.22;;;50.88;;
25231;SDS011;13176;51.140;6.290;2022-11-15T04:30:44;58.60;;;54.88;;
25231;SDS011;13176;51.140;6.290;2022-11-15T04:33:10;57.05;;;53.70;;
25231;SDS011;13176;51.140;6.290;2022-11-15T04:35:36;58.03;;;54.15;;
25231;SDS011;13176;51.140;6.290;2022-11-15T04:38:03;61.38;;;57.55;;
25231;SDS011;13176;51.140;6.290;2022-11-15T04:40:31;56.25;;;52.83;;
25231;SDS011;13176;51.140;6.290;2022-11-15T04:42:58;57.67;;;54.30;;
25231;SDS011;13176;51.140;6.290;2022-11-15T04:45:29;55.72;;;52.45;;
25231;SDS011;13176;51.140;6.290;2022-11-15T04:47:56;55.85;;;52.42;;
25231;SDS011;13176;51.140;6.290;2022-11-15T04:50:22;52.58;;;49.38;;
25231;SDS011;13176;51.140;6.290;2022-11-15T04:52:53;63.55;;;59.42;;
25231;SDS011;13176;51.140;6.290;2022-11-15T04:55:20;57.03;;;53.30;;
25231;SDS011;13176;51.140;6.290;2022-11-15T04:57:46;53.20;;;49.90;;
25231;SDS011;13176;51.140;6.290;2022-11-15T05:00:14;57.85;;;54.42;;
25231;SDS011;13176;51.140;6.290;2022-11-15T05:02:42;57.75;;;54.40;;
25231;SDS011;13176;51.140;6.290;2022-11-15T05:05:27;55.88;;;52.47;;
25231;SDS011;13176;51.140;6.290;2022-11-15T05:07:53;58.65;;;55.10;;
25231;SDS011;13176;51.140;6.290;2022-11-15T05:10:20;57.50;;;54.10;;
25231;SDS011;13176;51.140;6.290;2022-11-15T05:12:46;59.63;;;56.10;;
25231;SDS011;13176;51.140;6.290;2022-11-15T05:15:13;62.90;;;59.13;;
25231;SDS011;13176;51.140;6.290;2022-11-15T05:17:39;60.90;;;57.20;;
25231;SDS011;13176;51.140;6.290;2022-11-15T05:20:06;59.90;;;56.28;;
25231;SDS011;13176;51.140;6.290;2022-11-15T05:22:33;59.40;;;55.55;;
25231;SDS011;13176;51.140;6.290;2022-11-15T05:24:59;57.80;;;54.40;;
25231;SDS011;13176;51.140;6.290;2022-11-15T05:27:25;60.95;;;57.13;;
25231;SDS011;13176;51.140;6.290;2022-11-15T05:29:53;59.67;;;56.13;;
25231;SDS011;13176;51.140;6.290;2022-11-15T05:32:20;56.40;;;52.88;;
25231;SDS011;13176;51.140;6.290;2022-11-15T05:34:46;59.00;;;55.45;;
25231;SDS011;13176;51.140;6.290;2022-11-15T05:37:16;61.50;;;57.85;;
25231;SDS011;13176;51.140;6.290;2022-11-15T05:39:43;63.17;;;59.28;;
25231;SDS011;13176;51.140;6.290;2022-11-15T05:42:12;61.60;;;57.92;;
25231;SDS011;13176;51.140;6.290;2022-11-15T05:44:44;60.75;;;57.25;;
25231;SDS011;13176;51.140;6.290;2022-11-15T05:47:32;62.08;;;58.28;;
25231;SDS011;13176;51.140;6.290;2022-11-15T05:50:12;59.78;;;56.13;;
25231;SDS011;13176;51.140;6.290;2022-11-15T05:52:43;57.75;;;54.38;;
25231;SDS011;13176;51.140;6.290;2022-11-15T05:55:11;53.65;;;50.55;;
25231;SDS011;13176;51.140;6.290;2022-11-15T05:57:41;55.78;;;52.67;;
25231;SDS011;13176;51.140;6.290;2022-11-15T06:00:07;52.90;;;49.88;;
25231;SDS011;13176;51.140;6.290;2022-11-15T06:02:38;57.75;;;54.35;;
25231;SDS011;13176;51.140;6.290;2022-11-15T06:05:10;52.10;;;49.05;;
25231;SDS011;13176;51.140;6.290;2022-11-15T06:07:37;55.40;;;52.10;;
25231;SDS011;13176;51.140;6.290;2022-11-15T06:10:06;52.97;;;49.63;;
25231;SDS011;13176;51.140;6.290;2022-11-15T06:12:32;56.75;;;53.40;;
25231;SDS011;13176;51.140;6.290;2022-11-15T06:15:00;59.25;;;55.67;;
25231;SDS011;13176;51.140;6.290;2022-11-15T06:17:33;57.95;;;54.67;;
25231;SDS011;13176;51.140;6.290;2022-11-15T06:20:00;54.42;;;51.25;;
25231;SDS011;13176;51.140;6.290;2022-11-15T06:22:27;56.30;;;53.08;;
25231;SDS011;13176;51.140;6.290;2022-11-15T06:24:53;59.15;;;55.88;;
25231;SDS011;13176;51.140;6.290;2022-11-15T06:27:21;59.55;;;56.13;;
25231;SDS011;13176;51.140;6.290;2022-11-15T06:29:51;54.47;;;51.47;;
25231;SDS011;13176;51.140;6.290;2022-11-15T06:32:18;54.13;;;51.13;;
25231;SDS011;13176;51.140;6.290;2022-11-15T06:34:50;52.25;;;49.40;;
25231;SDS011;13176;51.140;6.290;2022-11-15T06:37:17;57.13;;;54.03;;
25231;SDS011;13176;51.140;6.290;2022-11-15T06:39:49;54.78;;;51.83;;
25231;SDS011;13176;51.140;6.290;2022-11-15T06:42:15;55.97;;;52.90;;
25231;SDS011;13176;51.140;6.290;2022-11-15T06:44:51;54.75;;;51.83;;
25231;SDS011;13176;51.140;6.290;2022-11-15T06:47:18;54.40;;;51.45;;
25231;SDS011;13176;51.140;6.290;2022-11-15T06:49:44;49.75;;;47.05;;
25231;SDS011;13176;51.140;6.290;2022-11-15T06:52:13;49.78;;;47.15;;
25231;SDS011;13176;51.140;6.290;2022-11-15T06:54:40;47.63;;;45.08;;
25231;SDS011;13176;51.140;6.290;2022-11-15T06:57:06;50.75;;;47.88;;
25231;SDS011;13176;51.140;6.290;2022-11-15T06:59:33;46.78;;;44.33;;
25231;SDS011;13176;51.140;6.290;2022-11-15T07:02:05;50.15;;;47.42;;
25231;SDS011;13176;51.140;6.290;2022-11-15T07:04:32;48.95;;;46.28;;
25231;SDS011;13176;51.140;6.290;2022-11-15T07:07:00;50.42;;;47.75;;
25231;SDS011;13176;51.140;6.290;2022-11-15T07:09:26;51.08;;;48.15;;
25231;SDS011;13176;51.140;6.290;2022-11-15T07:11:52;51.72;;;48.85;;
25231;SDS011;13176;51.140;6.290;2022-11-15T07:14:19;50.17;;;47.50;;
25231;SDS011;13176;51.140;6.290;2022-11-15T07:16:45;50.00;;;47.30;;
25231;SDS011;13176;51.140;6.290;2022-11-15T07:19:11;51.97;;;49.03;;
25231;SDS011;13176;51.140;6.290;2022-11-15T07:21:38;49.17;;;46.47;;
25231;SDS011;13176;51.140;6.290;2022-11-15T07:24:04;46.47;;;43.92;;
25231;SDS011;13176;51.140;6.290;2022-11-15T07:26:34;45.97;;;43.40;;
25231;SDS011;13176;51.140;6.290;2022-11-15T07:29:00;43.63;;;41.33;;
25231;SDS011;13176;51.140;6.290;2022-11-15T07:31:26;44.97;;;42.45;;
25231;SDS011;13176;51.140;6.290;2022-11-15T07:33:53;44.97;;;42.38;;
25231;SDS011;13176;51.140;6.290;2022-11-15T07:36:19;46.25;;;43.85;;
25231;SDS011;13176;51.140;6.290;2022-11-15T07:38:46;45.65;;;43.08;;
25231;SDS011;13176;51.140;6.290;2022-11-15T07:41:12;46.00;;;43.45;;
25231;SDS011;13176;51.140;6.290;2022-11-15T07:43:38;43.70;;;41.13;;
25231;SDS011;13176;51.140;6.290;2022-11-15T07:46:06;44.00;;;41.60;;
25231;SDS011;13176;51.140;6.290;2022-11-15T07:48:35;44.67;;;42.13;;
25231;SDS011;13176;51.140;6.290;2022-11-15T07:51:11;42.25;;;39.95;;
25231;SDS011;13176;51.140;6.290;2022-11-15T07:53:40;42.92;;;40.53;;
25231;SDS011;13176;51.140;6.290;2022-11-15T07:56:07;40.55;;;38.35;;
25231;SDS011;13176;51.140;6.290;2022-11-15T07:58:34;39.60;;;37.47;;
25231;SDS011;13176;51.140;6.290;2022-11-15T08:01:04;40.58;;;38.38;;
25231;SDS011;13176;51.140;6.290;2022-11-15T08:03:31;39.70;;;37.60;;
25231;SDS011;13176;51.140;6.290;2022-11-15T08:05:59;41.45;;;39.17;;
25231;SDS011;13176;51.140;6.290;2022-11-15T08:08:26;43.15;;;40.58;;
25231;SDS011;13176;51.140;6.290;2022-11-15T08:10:52;42.50;;;40.08;;
25231;SDS011;13176;51.140;6.290;2022-11-15T08:13:19;42.20;;;39.90;;
25231;SDS011;13176;51.140;6.290;2022-11-15T08:15:47;43.40;;;41.17;;
25231;SDS011;13176;51.140;6.290;2022-11-15T08:18:19;46.47;;;43.88;;
25231;SDS011;13176;51.140;6.290;2022-11-15T08:20:46;44.92;;;42.47;;
25231;SDS011;13176;51.140;6.290;2022-11-15T08:23:12;45.22;;;42.60;;
25231;SDS011;13176;51.140;6.290;2022-11-15T08:25:39;42.50;;;40.20;;
25231;SDS011;13176;51.140;6.290;2022-11-15T08:28:06;38.92;;;36.90;;
25231;SDS011;13176;51.140;6.290;2022-11-15T08:30:34;40.50;;;38.30;;
25231;SDS011;13176;51.140;6.290;2022-11-15T08:33:02;40.28;;;38.05;;
25231;SDS011;13176;51.140;6.290;2022-11-15T08:35:29;43.10;;;40.70;;
25231;SDS011;13176;51.140;6.290;2022-11-15T08:37:56;39.72;;;37.63;;
25231;SDS011;13176;51.140;6.290;2022-11-15T08:40:22;41.67;;;39.50;;
25231;SDS011;13176;51.140;6.290;2022-11-15T08:42:49;43.40;;;41.13;;
25231;SDS011;13176;51.140;6.290;2022-11-15T08:45:15;44.65;;;42.25;;
25231;SDS011;13176;51.140;6.290;2022-11-15T08:47:42;42.92;;;40.65;;
25231;SDS011;13176;51.140;6.290;2022-11-15T08:50:08;39.03;;;36.88;;
25231;SDS011;13176;51.140;6.290;2022-11-15T08:52:35;39.80;;;37.65;;
25231;SDS011;13176;51.140;6.290;2022-11-15T08:55:04;34.67;;;32.75;;
25231;SDS011;13176;51.140;6.290;2022-11-15T08:57:31;33.83;;;31.98;;
25231;SDS011;13176;51.140;6.290;2022-11-15T08:59:57;30.30;;;28.65;;
25231;SDS011;13176;51.140;6.290;2022-11-15T09:02:24;27.90;;;26.17;;
25231;SDS011;13176;51.140;6.290;2022-11-15T09:04:50;29.65;;;27.88;;
25231;SDS011;13176;51.140;6.290;2022-11-15T09:07:17;26.40;;;24.90;;
25231;SDS011;13176;51.140;6.290;2022-11-15T09:09:44;30.50;;;28.88;;
25231;SDS011;13176;51.140;6.290;2022-11-15T09:12:10;28.00;;;26.52;;
25231;SDS011;13176;51.140;6.290;2022-11-15T09:14:37;25.02;;;23.65;;
25231;SDS011;13176;51.140;6.290;2022-11-15T09:17:07;23.02;;;21.63;;
25231;SDS011;13176;51.140;6.290;2022-11-15T09:19:36;21.35;;;20.15;;
25231;SDS011;13176;51.140;6.290;2022-11-15T09:22:05;21.85;;;20.75;;
25231;SDS011;13176;51.140;6.290;2022-11-15T09:24:33;24.15;;;22.77;;
25231;SDS011;13176;51.140;6.290;2022-11-15T09:27:00;24.95;;;23.52;;
25231;SDS011;13176;51.140;6.290;2022-11-15T09:29:26;27.67;;;25.88;;
25231;SDS011;13176;51.140;6.290;2022-11-15T09:31:53;29.90;;;28.20;;
25231;SDS011;13176;51.140;6.290;2022-11-15T09:34:19;23.17;;;21.77;;
25231;SDS011;13176;51.140;6.290;2022-11-15T09:36:49;25.27;;;23.70;;
25231;SDS011;13176;51.140;6.290;2022-11-15T09:39:30;24.23;;;22.83;;
25231;SDS011;13176;51.140;6.290;2022-11-15T09:41:58;26.02;;;24.63;;
25231;SDS011;13176;51.140;6.290;2022-11-15T09:44:38;27.02;;;25.63;;
25231;SDS011;13176;51.140;6.290;2022-11-15T09:50:09;25.48;;;24.02;;
25231;SDS011;13176;51.140;6.290;2022-11-15T09:52:39;26.48;;;24.83;;
25231;SDS011;13176;51.140;6.290;2022-11-15T09:55:10;24.52;;;23.15;;
25231;SDS011;13176;51.140;6.290;2022-11-15T10:05:45;14.88;;;13.98;;
25231;SDS011;13176;51.140;6.290;2022-11-15T10:11:03;9.57;;;9.07;;
25231;SDS011;13176;51.140;6.290;2022-11-15T10:13:54;8.52;;;7.93;;
25231;SDS011;13176;51.140;6.290;2022-11-15T10:19:16;11.50;;;10.75;;
25231;SDS011;13176;51.140;6.290;2022-11-15T10:24:41;8.32;;;7.72;;
25231;SDS011;13176;51.140;6.290;2022-11-15T10:27:10;7.07;;;6.57;;
25231;SDS011;13176;51.140;6.290;2022-11-15T10:32:19;9.70;;;9.10;;
25231;SDS011;13176;51.140;6.290;2022-11-15T10:34:49;11.95;;;11.27;;
25231;SDS011;13176;51.140;6.290;2022-11-15T10:37:30;12.82;;;12.13;;
25231;SDS011;13176;51.140;6.290;2022-11-15T10:40:02;8.88;;;8.32;;
25231;SDS011;13176;51.140;6.290;2022-11-15T10:42:32;7.40;;;7.00;;
25231;SDS011;13176;51.140;6.290;2022-11-15T10:44:59;6.90;;;6.47;;
25231;SDS011;13176;51.140;6.290;2022-11-15T10:47:29;7.35;;;6.85;;
25231;SDS011;13176;51.140;6.290;2022-11-15T10:50:07;6.28;;;5.88;;
25231;SDS011;13176;51.140;6.290;2022-11-15T10:52:52;5.95;;;5.10;;
25231;SDS011;13176;51.140;6.290;2022-11-15T10:55:37;4.10;;;3.88;;
25231;SDS011;13176;51.140;6.290;2022-11-15T10:58:19;4.40;;;4.10;;
25231;SDS011;13176;51.140;6.290;2022-11-15T11:01:08;5.80;;;4.13;;
25231;SDS011;13176;51.140;6.290;2022-11-15T11:03:42;4.85;;;4.55;;
25231;SDS011;13176;51.140;6.290;2022-11-15T11:06:11;4.80;;;4.45;;
25231;SDS011;13176;51.140;6.290;2022-11-15T11:08:39;6.47;;;5.88;;
25231;SDS011;13176;51.140;6.290;2022-11-15T11:11:07;6.90;;;6.30;;
25231;SDS011;13176;51.140;6.290;2022-11-15T11:13:38;7.18;;;6.68;;
25231;SDS011;13176;51.140;6.290;2022-11-15T11:21:46;7.50;;;7.10;;
25231;SDS011;13176;51.140;6.290;2022-11-15T11:38:15;7.22;;;6.72;;
25231;SDS011;13176;51.140;6.290;2022-11-15T11:41:23;5.75;;;5.45;;
25231;SDS011;13176;51.140;6.290;2022-11-15T11:49:26;7.28;;;6.72;;
25231;SDS011;13176;51.140;6.290;2022-11-15T11:57:47;5.93;;;5.60;;
25231;SDS011;13176;51.140;6.290;2022-11-15T12:00:20;6.00;;;5.60;;
25231;SDS011;13176;51.140;6.290;2022-11-15T12:05:37;5.93;;;5.53;;
25231;SDS011;13176;51.140;6.290;2022-11-15T12:08:26;6.03;;;5.70;;
25231;SDS011;13176;51.140;6.290;2022-11-15T12:14:03;6.70;;;6.30;;
25231;SDS011;13176;51.140;6.290;2022-11-15T12:16:35;6.18;;;5.60;;
25231;SDS011;13176;51.140;6.290;2022-11-15T12:19:04;6.45;;;5.63;;
25231;SDS011;13176;51.140;6.290;2022-11-15T12:24:25;7.47;;;6.70;;
25231;SDS011;13176;51.140;6.290;2022-11-15T12:27:17;5.60;;;5.20;;
25231;SDS011;13176;51.140;6.290;2022-11-15T12:29:52;5.78;;;5.47;;
25231;SDS011;13176;51.140;6.290;2022-11-15T12:32:27;7.25;;;6.85;;
25231;SDS011;13176;51.140;6.290;2022-11-15T12:34:56;5.68;;;5.30;;
25231;SDS011;13176;51.140;6.290;2022-11-15T12:37:46;6.80;;;6.38;;
25231;SDS011;13176;51.140;6.290;2022-11-15T12:40:19;6.20;;;5.57;;
25231;SDS011;13176;51.140;6.290;2022-11-15T12:45:42;6.43;;;6.00;;
25231;SDS011;13176;51.140;6.290;2022-11-15T12:58:40;6.32;;;5.72;;
25231;SDS011;13176;51.140;6.290;2022-11-15T13:11:55;6.82;;;6.32;;
25231;SDS011;13176;51.140;6.290;2022-11-15T13:17:12;6.32;;;5.90;;
25231;SDS011;13176;51.140;6.290;2022-11-15T13:19:42;6.60;;;6.10;;
25231;SDS011;13176;51.140;6.290;2022-11-15T13:22:09;6.43;;;5.90;;
25231;SDS011;13176;51.140;6.290;2022-11-15T13:24:55;7.30;;;6.60;;
25231;SDS011;13176;51.140;6.290;2022-11-15T13:27:22;7.20;;;6.65;;
25231;SDS011;13176;51.140;6.290;2022-11-15T13:29:48;7.32;;;6.72;;
25231;SDS011;13176;51.140;6.290;2022-11-15T13:32:15;13.75;;;8.05;;
25231;SDS011;13176;51.140;6.290;2022-11-15T13:34:43;7.18;;;6.57;;
25231;SDS011;13176;51.140;6.290;2022-11-15T13:39:48;6.78;;;6.38;;
25231;SDS011;13176;51.140;6.290;2022-11-15T13:42:16;7.05;;;6.57;;
25231;SDS011;13176;51.140;6.290;2022-11-15T13:44:57;7.25;;;6.75;;
25231;SDS011;13176;51.140;6.290;2022-11-15T13:47:26;7.35;;;6.75;;
25231;SDS011;13176;51.140;6.290;2022-11-15T13:49:53;7.63;;;7.18;;
25231;SDS011;13176;51.140;6.290;2022-11-15T13:52:24;7.60;;;7.10;;
25231;SDS011;13176;51.140;6.290;2022-11-15T13:55:01;7.72;;;7.22;;
25231;SDS011;13176;51.140;6.290;2022-11-15T13:57:44;8.90;;;8.10;;
25231;SDS011;13176;51.140;6.290;2022-11-15T14:03:34;7.10;;;6.45;;
25231;SDS011;13176;51.140;6.290;2022-11-15T14:06:10;7.57;;;6.97;;
25231;SDS011;13176;51.140;6.290;2022-11-15T14:08:41;9.32;;;8.82;;
25231;SDS011;13176;51.140;6.290;2022-11-15T14:11:23;9.57;;;8.98;;
25231;SDS011;13176;51.140;6.290;2022-11-15T14:19:02;9.48;;;8.68;;
25231;SDS011;13176;51.140;6.290;2022-11-15T14:21:30;10.10;;;9.40;;
25231;SDS011;13176;51.140;6.290;2022-11-15T14:26:42;11.05;;;10.35;;
25231;SDS011;13176;51.140;6.290;2022-11-15T14:29:24;11.73;;;10.93;;
25231;SDS011;13176;51.140;6.290;2022-11-15T14:35:12;11.63;;;10.73;;
25231;SDS011;13176;51.140;6.290;2022-11-15T14:37:41;12.68;;;11.57;;
25231;SDS011;13176;51.140;6.290;2022-11-15T14:40:11;12.07;;;11.40;;
25231;SDS011;13176;51.140;6.290;2022-11-15T14:42:39;11.40;;;10.65;;
25231;SDS011;13176;51.140;6.290;2022-11-15T14:45:13;10.75;;;10.00;;
25231;SDS011;13176;51.140;6.290;2022-11-15T14:47:53;11.05;;;10.23;;
25231;SDS011;13176;51.140;6.290;2022-11-15T14:50:20;10.55;;;10.00;;
25231;SDS011;13176;51.140;6.290;2022-11-15T14:52:47;11.30;;;10.60;;
25231;SDS011;13176;51.140;6.290;2022-11-15T14:55:20;10.48;;;9.85;;
25231;SDS011;13176;51.140;6.290;2022-11-15T14:57:49;9.65;;;8.80;;
25231;SDS011;13176;51.140;6.290;2022-11-15T15:00:16;9.27;;;8.60;;
25231;SDS011;13176;51.140;6.290;2022-11-15T15:02:43;9.00;;;8.50;;
25231;SDS011;13176;51.140;6.290;2022-11-15T15:05:14;10.05;;;9.25;;
25231;SDS011;13176;51.140;6.290;2022-11-15T15:07:43;11.13;;;10.43;;
25231;SDS011;13176;51.140;6.290;2022-11-15T15:10:09;10.60;;;10.00;;
25231;SDS011;13176;51.140;6.290;2022-11-15T15:12:56;10.45;;;9.90;;
25231;SDS011;13176;51.140;6.290;2022-11-15T15:15:26;11.10;;;10.50;;
25231;SDS011;13176;51.140;6.290;2022-11-15T15:17:57;11.60;;;11.00;;
25231;SDS011;13176;51.140;6.290;2022-11-15T15:20:24;11.20;;;10.50;;
25231;SDS011;13176;51.140;6.290;2022-11-15T15:22:50;11.85;;;11.18;;
25231;SDS011;13176;51.140;6.290;2022-11-15T15:25:35;11.07;;;10.45;;
25231;SDS011;13176;51.140;6.290;2022-11-15T15:30:29;10.57;;;9.85;;
25231;SDS011;13176;51.140;6.290;2022-11-15T15:32:56;11.05;;;10.45;;
25231;SDS011;13176;51.140;6.290;2022-11-15T15:35:23;10.98;;;10.18;;
25231;SDS011;13176;51.140;6.290;2022-11-15T15:37:51;12.20;;;11.50;;
25231;SDS011;13176;51.140;6.290;2022-11-15T15:40:21;16.80;;;15.18;;
25231;SDS011;13176;51.140;6.290;2022-11-15T15:42:49;16.60;;;15.63;;
25231;SDS011;13176;51.140;6.290;2022-11-15T15:45:16;17.30;;;16.08;;
25231;SDS011;13176;51.140;6.290;2022-11-15T15:47:44;17.88;;;16.63;;
25231;SDS011;13176;51.140;6.290;2022-11-15T15:52:49;15.90;;;14.90;;
25231;SDS011;13176;51.140;6.290;2022-11-15T15:55:19;14.70;;;13.75;;
25231;SDS011;13176;51.140;6.290;2022-11-15T15:57:47;17.25;;;16.17;;
25231;SDS011;13176;51.140;6.290;2022-11-15T16:00:14;17.33;;;16.08;;
25231;SDS011;13176;51.140;6.290;2022-11-15T16:02:41;15.70;;;14.43;;
25231;SDS011;13176;51.140;6.290;2022-11-15T16:05:07;15.02;;;13.93;;
25231;SDS011;13176;51.140;6.290;2022-11-15T16:07:35;13.82;;;13.02;;
25231;SDS011;13176;51.140;6.290;2022-11-15T16:12:57;12.00;;;11.35;;
25231;SDS011;13176;51.140;6.290;2022-11-15T16:15:25;12.48;;;11.77;;
25231;SDS011;13176;51.140;6.290;2022-11-15T16:17:53;11.90;;;11.30;;
25231;SDS011;13176;51.140;6.290;2022-11-15T16:20:23;12.88;;;12.07;;
25231;SDS011;13176;51.140;6.290;2022-11-15T16:22:56;13.65;;;12.90;;
25231;SDS011;13176;51.140;6.290;2022-11-15T16:25:27;13.65;;;12.85;;
25231;SDS011;13176;51.140;6.290;2022-11-15T16:27:53;13.02;;;12.23;;
25231;SDS011;13176;51.140;6.290;2022-11-15T16:30:21;12.82;;;11.95;;
25231;SDS011;13176;51.140;6.290;2022-11-15T16:32:48;14.60;;;13.70;;
25231;SDS011;13176;51.140;6.290;2022-11-15T16:35:15;13.32;;;12.52;;
25231;SDS011;13176;51.140;6.290;2022-11-15T16:37:43;14.48;;;13.32;;
25231;SDS011;13176;51.140;6.290;2022-11-15T16:40:25;14.25;;;13.40;;
25231;SDS011;13176;51.140;6.290;2022-11-15T16:42:53;15.20;;;14.32;;
25231;SDS011;13176;51.140;6.290;2022-11-15T16:45:21;16.63;;;15.43;;
25231;SDS011;13176;51.140;6.290;2022-11-15T16:47:48;20.77;;;19.48;;
25231;SDS011;13176;51.140;6.290;2022-11-15T16:50:17;25.92;;;24.42;;
25231;SDS011;13176;51.140;6.290;2022-11-15T16:52:49;30.35;;;28.45;;
25231;SDS011;13176;51.140;6.290;2022-11-15T16:55:17;26.30;;;24.83;;
25231;SDS011;13176;51.140;6.290;2022-11-15T16:57:53;22.85;;;21.52;;
25231;SDS011;13176;51.140;6.290;2022-11-15T17:00:21;26.00;;;24.10;;
25231;SDS011;13176;51.140;6.290;2022-11-15T17:02:48;27.55;;;25.83;;
25231;SDS011;13176;51.140;6.290;2022-11-15T17:05:17;24.17;;;22.85;;
25231;SDS011;13176;51.140;6.290;2022-11-15T17:07:46;26.52;;;24.92;;